sensor_id;sensor_type;location;lat;lon;timestamp;temperature;humidity
41557;DHT22;27720;51.992;5.890;2023-02-19T21:54:28;5.30;99.90
41557;DHT22;27720;51.992;5.890;2023-02-19T21:57:01;5.50;99.90
41557;DHT22;27720;51.992;5.890;2023-02-19T21:59:27;5.80;99.90
41557;DHT22;27720;51.992;5.890;2023-02-19T22:01:53;6.20;99.90
41557;DHT22;27720;51.992;5.890;2023-02-19T22:04:22;6.50;99.90
41557;DHT22;27720;51.992;5.890;2023-02-19T22:06:49;6.70;99.90
41557;DHT22;27720;51.992;5.890;2023-02-19T22:09:17;6.90;99.90
41557;DHT22;27720;51.992;5.890;2023-02-19T22:11:44;7.00;99.90
41557;DHT22;27720;51.992;5.890;2023-02-19T22:14:12;7.20;99.90
41557;DHT22;27720;51.992;5.890;2023-02-19T22:16:49;7.30;99.90
41557;DHT22;27720;51.992;5.890;2023-02-19T22:19:16;7.40;99.90
41557;DHT22;27720;51.992;5.890;2023-02-19T22:21:44;7.50;99.90
41557;DHT22;27720;51.992;5.890;2023-02-19T22:24:21;7.50;99.90
41557;DHT22;27720;51.992;5.890;2023-02-19T22:26:54;7.50;99.90
41557;DHT22;27720;51.992;5.890;2023-02-19T22:29:23;7.60;99.90
41557;DHT22;27720;51.992;5.890;2023-02-19T22:31:52;7.60;99.90
41557;DHT22;27720;51.992;5.890;2023-02-19T22:34:21;7.60;99.90
41557;DHT22;27720;51.992;5.890;2023-02-19T22:36:51;7.70;99.90
41557;DHT22;27720;51.992;5.890;2023-02-19T22:39:23;7.70;99.90
41557;DHT22;27720;51.992;5.890;2023-02-19T22:41:50;7.70;99.90
41557;DHT22;27720;51.992;5.890;2023-02-19T22:44:16;7.70;99.90
41557;DHT22;27720;51.992;5.890;2023-02-19T22:46:57;7.60;99.90
41557;DHT22;27720;51.992;5.890;2023-02-19T22:49:23;7.70;99.90
41557;DHT22;27720;51.992;5.890;2023-02-19T22:52:00;7.70;99.90
41557;DHT22;27720;51.992;5.890;2023-02-19T22:54:30;7.70;99.90
41557;DHT22;27720;51.992;5.890;2023-02-19T22:56:56;7.70;99.90
41557;DHT22;27720;51.992;5.890;2023-02-19T22:59:22;7.70;99.90
41557;DHT22;27720;51.992;5.890;2023-02-19T23:01:48;7.70;99.90
41557;DHT22;27720;51.992;5.890;2023-02-19T23:04:15;7.70;99.90
41557;DHT22;27720;51.992;5.890;2023-02-19T23:06:43;7.70;99.90
41557;DHT22;27720;51.992;5.890;2023-02-19T23:09:20;7.70;99.90
41557;DHT22;27720;51.992;5.890;2023-02-19T23:11:49;7.60;99.90
41557;DHT22;27720;51.992;5.890;2023-02-19T23:14:16;7.60;99.90
41557;DHT22;27720;51.992;5.890;2023-02-19T23:16:43;7.60;99.90
41557;DHT22;27720;51.992;5.890;2023-02-19T23:19:10;7.50;99.90
41557;DHT22;27720;51.992;5.890;2023-02-19T23:21:41;7.50;99.90
41557;DHT22;27720;51.992;5.890;2023-02-19T23:24:08;7.60;99.90
41557;DHT22;27720;51.992;5.890;2023-02-19T23:26:34;7.50;99.90
41557;DHT22;27720;51.992;5.890;2023-02-19T23:29:00;7.50;99.90
41557;DHT22;27720;51.992;5.890;2023-02-19T23:31:26;7.50;99.90
41557;DHT22;27720;51.992;5.890;2023-02-19T23:33:53;7.60;99.90
41557;DHT22;27720;51.992;5.890;2023-02-19T23:36:19;7.60;99.90
41557;DHT22;27720;51.992;5.890;2023-02-19T23:38:51;7.60;99.90
41557;DHT22;27720;51.992;5.890;2023-02-19T23:41:17;7.60;99.90
41557;DHT22;27720;51.992;5.890;2023-02-19T23:43:43;7.60;99.90
41557;DHT22;27720;51.992;5.890;2023-02-19T23:46:16;7.60;99.90
41557;DHT22;27720;51.992;5.890;2023-02-19T23:48:43;7.60;99.90
41557;DHT22;27720;51.992;5.890;2023-02-19T23:51:10;7.60;99.90
41557;DHT22;27720;51.992;5.890;2023-02-19T23:53:36;7.60;99.90
41557;DHT22;27720;51.992;5.890;2023-02-19T23:56:04;7.60;99.90
41557;DHT22;27720;51.992;5.890;2023-02-19T23:58:30;7.60;99.90
